sensor_id;sensor_type;location;lat;lon;timestamp;P1;durP1;ratioP1;P2;durP2;ratioP2
75516;SDS011;64097;52.548;13.406;2023-12-20T07:11:51;3.22;;;1.10;;
75516;SDS011;64097;52.548;13.406;2023-12-20T07:14:17;4.10;;;1.30;;
75516;SDS011;64097;52.548;13.406;2023-12-20T07:16:42;4.10;;;1.40;;
75516;SDS011;64097;52.548;13.406;2023-12-20T07:19:08;3.58;;;1.20;;
75516;SDS011;64097;52.548;13.406;2023-12-20T07:21:34;4.15;;;1.50;;
75516;SDS011;64097;52.548;13.406;2023-12-20T07:23:59;4.75;;;1.52;;
75516;SDS011;64097;52.548;13.406;2023-12-20T07:26:25;3.90;;;1.40;;
75516;SDS011;64097;52.548;13.406;2023-12-20T07:28:51;5.43;;;1.55;;
75516;SDS011;64097;52.548;13.406;2023-12-20T07:31:16;4.55;;;1.60;;
75516;SDS011;64097;52.548;13.406;2023-12-20T07:33:42;3.35;;;1.30;;
75516;SDS011;64097;52.548;13.406;2023-12-20T07:36:08;4.07;;;1.38;;
75516;SDS011;64097;52.548;13.406;2023-12-20T07:38:33;3.45;;;1.40;;
75516;SDS011;64097;52.548;13.406;2023-12-20T07:40:59;3.72;;;1.45;;
75516;SDS011;64097;52.548;13.406;2023-12-20T07:43:25;3.63;;;1.80;;
75516;SDS011;64097;52.548;13.406;2023-12-20T07:45:51;5.32;;;2.00;;
75516;SDS011;64097;52.548;13.406;2023-12-20T07:48:16;3.53;;;1.50;;
75516;SDS011;64097;52.548;13.406;2023-12-20T07:50:42;3.75;;;1.20;;
75516;SDS011;64097;52.548;13.406;2023-12-20T07:53:08;3.92;;;1.50;;
75516;SDS011;64097;52.548;13.406;2023-12-20T07:55:35;3.13;;;1.45;;
75516;SDS011;64097;52.548;13.406;2023-12-20T07:58:01;3.80;;;1.33;;
75516;SDS011;64097;52.548;13.406;2023-12-20T08:00:27;5.25;;;1.50;;
75516;SDS011;64097;52.548;13.406;2023-12-20T08:02:53;3.45;;;1.50;;
75516;SDS011;64097;52.548;13.406;2023-12-20T08:05:18;4.70;;;1.45;;
75516;SDS011;64097;52.548;13.406;2023-12-20T08:07:44;3.63;;;1.42;;
75516;SDS011;64097;52.548;13.406;2023-12-20T08:10:10;3.30;;;1.10;;
75516;SDS011;64097;52.548;13.406;2023-12-20T08:12:36;4.80;;;1.58;;
75516;SDS011;64097;52.548;13.406;2023-12-20T08:15:02;3.30;;;1.20;;
75516;SDS011;64097;52.548;13.406;2023-12-20T08:17:28;5.10;;;1.40;;
75516;SDS011;64097;52.548;13.406;2023-12-20T08:19:55;3.42;;;1.35;;
75516;SDS011;64097;52.548;13.406;2023-12-20T08:22:21;3.75;;;1.50;;
75516;SDS011;64097;52.548;13.406;2023-12-20T08:24:47;3.92;;;1.52;;
75516;SDS011;64097;52.548;13.406;2023-12-20T08:27:13;5.10;;;1.48;;
75516;SDS011;64097;52.548;13.406;2023-12-20T08:29:38;3.38;;;1.58;;
75516;SDS011;64097;52.548;13.406;2023-12-20T08:32:04;2.97;;;1.40;;
75516;SDS011;64097;52.548;13.406;2023-12-20T08:34:30;4.75;;;1.45;;
75516;SDS011;64097;52.548;13.406;2023-12-20T08:36:56;5.63;;;1.65;;
75516;SDS011;64097;52.548;13.406;2023-12-20T08:39:22;3.53;;;1.20;;
75516;SDS011;64097;52.548;13.406;2023-12-20T08:41:47;3.90;;;1.30;;
75516;SDS011;64097;52.548;13.406;2023-12-20T08:44:13;3.28;;;1.30;;
75516;SDS011;64097;52.548;13.406;2023-12-20T08:46:39;3.78;;;1.33;;
75516;SDS011;64097;52.548;13.406;2023-12-20T08:49:05;3.47;;;1.27;;
75516;SDS011;64097;52.548;13.406;2023-12-20T08:51:30;4.18;;;1.40;;
75516;SDS011;64097;52.548;13.406;2023-12-20T08:53:56;3.40;;;1.20;;
75516;SDS011;64097;52.548;13.406;2023-12-20T08:56:22;3.38;;;1.10;;
75516;SDS011;64097;52.548;13.406;2023-12-20T08:58:48;2.58;;;1.10;;
75516;SDS011;64097;52.548;13.406;2023-12-20T09:01:14;4.25;;;1.33;;
75516;SDS011;64097;52.548;13.406;2023-12-20T09:03:40;5.38;;;1.27;;
75516;SDS011;64097;52.548;13.406;2023-12-20T09:06:06;2.17;;;1.10;;
75516;SDS011;64097;52.548;13.406;2023-12-20T09:08:31;3.08;;;1.00;;
75516;SDS011;64097;52.548;13.406;2023-12-20T09:10:58;4.05;;;1.30;;
75516;SDS011;64097;52.548;13.406;2023-12-20T09:13:24;3.65;;;1.13;;
75516;SDS011;64097;52.548;13.406;2023-12-20T09:15:56;5.63;;;1.50;;
75516;SDS011;64097;52.548;13.406;2023-12-20T09:18:22;2.53;;;1.25;;
75516;SDS011;64097;52.548;13.406;2023-12-20T09:20:47;4.32;;;1.63;;
75516;SDS011;64097;52.548;13.406;2023-12-20T09:23:13;3.75;;;1.42;;
75516;SDS011;64097;52.548;13.406;2023-12-20T09:25:39;6.20;;;1.40;;
75516;SDS011;64097;52.548;13.406;2023-12-20T09:28:04;4.97;;;1.30;;
75516;SDS011;64097;52.548;13.406;2023-12-20T09:30:30;3.65;;;1.17;;
75516;SDS011;64097;52.548;13.406;2023-12-20T09:32:56;4.68;;;1.10;;
75516;SDS011;64097;52.548;13.406;2023-12-20T09:35:22;4.20;;;1.33;;
75516;SDS011;64097;52.548;13.406;2023-12-20T09:37:48;2.75;;;1.30;;
75516;SDS011;64097;52.548;13.406;2023-12-20T09:40:14;4.80;;;1.50;;
75516;SDS011;64097;52.548;13.406;2023-12-20T09:45:35;4.95;;;1.38;;
75516;SDS011;64097;52.548;13.406;2023-12-20T09:48:02;6.47;;;1.80;;
75516;SDS011;64097;52.548;13.406;2023-12-20T09:50:30;3.80;;;1.30;;
75516;SDS011;64097;52.548;13.406;2023-12-20T09:52:57;5.97;;;1.63;;
75516;SDS011;64097;52.548;13.406;2023-12-20T09:55:24;4.38;;;1.63;;
75516;SDS011;64097;52.548;13.406;2023-12-20T09:57:52;4.93;;;1.73;;
75516;SDS011;64097;52.548;13.406;2023-12-20T10:00:17;4.55;;;1.40;;
75516;SDS011;64097;52.548;13.406;2023-12-20T10:03:01;5.22;;;1.73;;
75516;SDS011;64097;52.548;13.406;2023-12-20T10:05:29;5.00;;;1.50;;
75516;SDS011;64097;52.548;13.406;2023-12-20T10:07:59;3.80;;;1.48;;
75516;SDS011;64097;52.548;13.406;2023-12-20T10:10:26;5.38;;;1.48;;
75516;SDS011;64097;52.548;13.406;2023-12-20T10:13:07;6.38;;;2.40;;
75516;SDS011;64097;52.548;13.406;2023-12-20T10:15:35;5.07;;;2.10;;
75516;SDS011;64097;52.548;13.406;2023-12-20T10:18:02;5.63;;;2.08;;
75516;SDS011;64097;52.548;13.406;2023-12-20T10:20:29;5.10;;;1.83;;
75516;SDS011;64097;52.548;13.406;2023-12-20T10:22:56;4.93;;;1.52;;
75516;SDS011;64097;52.548;13.406;2023-12-20T10:25:22;4.82;;;1.60;;
75516;SDS011;64097;52.548;13.406;2023-12-20T10:27:49;3.53;;;1.48;;
75516;SDS011;64097;52.548;13.406;2023-12-20T10:30:17;5.15;;;1.60;;
75516;SDS011;64097;52.548;13.406;2023-12-20T10:32:43;4.47;;;1.52;;
75516;SDS011;64097;52.548;13.406;2023-12-20T10:35:08;5.38;;;1.20;;
75516;SDS011;64097;52.548;13.406;2023-12-20T10:37:35;5.15;;;1.55;;
75516;SDS011;64097;52.548;13.406;2023-12-20T10:40:03;4.88;;;1.38;;
75516;SDS011;64097;52.548;13.406;2023-12-20T10:42:31;4.68;;;1.60;;
75516;SDS011;64097;52.548;13.406;2023-12-20T10:44:58;4.55;;;1.63;;
75516;SDS011;64097;52.548;13.406;2023-12-20T10:47:25;4.93;;;1.50;;
75516;SDS011;64097;52.548;13.406;2023-12-20T10:49:54;4.78;;;1.75;;
75516;SDS011;64097;52.548;13.406;2023-12-20T10:52:20;5.50;;;1.60;;
75516;SDS011;64097;52.548;13.406;2023-12-20T10:54:48;3.83;;;1.58;;
75516;SDS011;64097;52.548;13.406;2023-12-20T10:57:14;4.00;;;1.50;;
75516;SDS011;64097;52.548;13.406;2023-12-20T10:59:41;5.75;;;1.75;;
75516;SDS011;64097;52.548;13.406;2023-12-20T11:02:10;4.68;;;1.58;;
75516;SDS011;64097;52.548;13.406;2023-12-20T11:07:24;5.38;;;1.80;;
75516;SDS011;64097;52.548;13.406;2023-12-20T11:09:58;4.80;;;2.50;;
75516;SDS011;64097;52.548;13.406;2023-12-20T11:15:06;7.38;;;3.42;;
75516;SDS011;64097;52.548;13.406;2023-12-20T11:17:32;5.28;;;2.33;;
75516;SDS011;64097;52.548;13.406;2023-12-20T11:22:29;5.15;;;1.83;;
75516;SDS011;64097;52.548;13.406;2023-12-20T11:25:14;4.13;;;1.60;;
75516;SDS011;64097;52.548;13.406;2023-12-20T11:27:40;4.95;;;1.50;;
75516;SDS011;64097;52.548;13.406;2023-12-20T11:30:08;5.95;;;1.85;;
75516;SDS011;64097;52.548;13.406;2023-12-20T11:32:35;3.72;;;1.20;;
75516;SDS011;64097;52.548;13.406;2023-12-20T11:37:36;3.80;;;1.63;;
75516;SDS011;64097;52.548;13.406;2023-12-20T11:40:08;5.68;;;1.73;;
75516;SDS011;64097;52.548;13.406;2023-12-20T11:42:52;5.43;;;1.63;;
75516;SDS011;64097;52.548;13.406;2023-12-20T11:45:19;5.13;;;1.70;;
75516;SDS011;64097;52.548;13.406;2023-12-20T11:47:51;4.18;;;1.30;;
75516;SDS011;64097;52.548;13.406;2023-12-20T11:50:20;3.53;;;1.50;;
75516;SDS011;64097;52.548;13.406;2023-12-20T11:52:47;4.97;;;1.55;;
75516;SDS011;64097;52.548;13.406;2023-12-20T11:55:14;4.22;;;1.35;;
75516;SDS011;64097;52.548;13.406;2023-12-20T11:57:40;4.57;;;1.73;;
75516;SDS011;64097;52.548;13.406;2023-12-20T12:00:06;4.03;;;1.50;;
75516;SDS011;64097;52.548;13.406;2023-12-20T12:02:33;7.68;;;2.00;;
75516;SDS011;64097;52.548;13.406;2023-12-20T12:04:59;3.13;;;1.20;;
75516;SDS011;64097;52.548;13.406;2023-12-20T12:07:25;4.60;;;1.67;;
75516;SDS011;64097;52.548;13.406;2023-12-20T12:09:51;3.60;;;1.60;;
75516;SDS011;64097;52.548;13.406;2023-12-20T12:12:17;5.00;;;1.63;;
75516;SDS011;64097;52.548;13.406;2023-12-20T12:14:44;6.30;;;1.65;;
75516;SDS011;64097;52.548;13.406;2023-12-20T12:17:11;6.00;;;1.65;;
75516;SDS011;64097;52.548;13.406;2023-12-20T12:19:37;5.22;;;1.90;;
75516;SDS011;64097;52.548;13.406;2023-12-20T12:22:07;5.25;;;2.00;;
75516;SDS011;64097;52.548;13.406;2023-12-20T12:24:38;4.03;;;1.45;;
75516;SDS011;64097;52.548;13.406;2023-12-20T12:27:07;2.97;;;1.50;;
75516;SDS011;64097;52.548;13.406;2023-12-20T12:29:36;4.43;;;1.60;;
75516;SDS011;64097;52.548;13.406;2023-12-20T12:32:11;4.93;;;1.63;;
75516;SDS011;64097;52.548;13.406;2023-12-20T12:34:37;3.80;;;1.40;;
75516;SDS011;64097;52.548;13.406;2023-12-20T12:37:03;4.45;;;1.40;;
75516;SDS011;64097;52.548;13.406;2023-12-20T12:39:29;5.10;;;1.40;;
75516;SDS011;64097;52.548;13.406;2023-12-20T12:41:55;4.35;;;1.70;;
75516;SDS011;64097;52.548;13.406;2023-12-20T12:44:22;2.60;;;1.30;;
75516;SDS011;64097;52.548;13.406;2023-12-20T12:46:50;3.65;;;1.52;;
75516;SDS011;64097;52.548;13.406;2023-12-20T12:49:16;4.05;;;1.83;;
75516;SDS011;64097;52.548;13.406;2023-12-20T12:51:42;4.00;;;1.70;;
75516;SDS011;64097;52.548;13.406;2023-12-20T12:54:08;4.78;;;1.70;;
75516;SDS011;64097;52.548;13.406;2023-12-20T12:56:35;4.05;;;1.42;;
75516;SDS011;64097;52.548;13.406;2023-12-20T12:59:01;4.10;;;1.60;;
75516;SDS011;64097;52.548;13.406;2023-12-20T13:01:27;2.45;;;1.30;;
75516;SDS011;64097;52.548;13.406;2023-12-20T13:03:53;5.07;;;1.65;;
75516;SDS011;64097;52.548;13.406;2023-12-20T13:06:19;3.78;;;1.50;;
75516;SDS011;64097;52.548;13.406;2023-12-20T13:08:45;5.35;;;1.77;;
75516;SDS011;64097;52.548;13.406;2023-12-20T13:11:12;4.13;;;1.85;;
75516;SDS011;64097;52.548;13.406;2023-12-20T13:13:38;4.00;;;1.60;;
75516;SDS011;64097;52.548;13.406;2023-12-20T13:16:04;3.83;;;1.48;;
75516;SDS011;64097;52.548;13.406;2023-12-20T13:18:30;5.57;;;1.85;;
75516;SDS011;64097;52.548;13.406;2023-12-20T13:20:55;5.80;;;1.77;;
75516;SDS011;64097;52.548;13.406;2023-12-20T13:23:21;4.82;;;1.90;;
75516;SDS011;64097;52.548;13.406;2023-12-20T13:25:47;4.30;;;1.85;;
75516;SDS011;64097;52.548;13.406;2023-12-20T13:28:12;5.75;;;3.25;;
75516;SDS011;64097;52.548;13.406;2023-12-20T13:30:38;5.47;;;2.45;;
75516;SDS011;64097;52.548;13.406;2023-12-20T13:33:05;4.45;;;1.75;;
75516;SDS011;64097;52.548;13.406;2023-12-20T13:35:31;1.50;;;0.85;;
75516;SDS011;64097;52.548;13.406;2023-12-20T13:37:58;1.42;;;0.70;;
75516;SDS011;64097;52.548;13.406;2023-12-20T13:40:24;1.27;;;0.70;;
75516;SDS011;64097;52.548;13.406;2023-12-20T13:42:50;1.50;;;0.80;;
75516;SDS011;64097;52.548;13.406;2023-12-20T13:45:16;1.55;;;0.65;;
75516;SDS011;64097;52.548;13.406;2023-12-20T13:47:41;1.13;;;0.75;;
75516;SDS011;64097;52.548;13.406;2023-12-20T13:50:07;2.13;;;0.75;;
75516;SDS011;64097;52.548;13.406;2023-12-20T13:52:33;2.05;;;0.63;;
75516;SDS011;64097;52.548;13.406;2023-12-20T13:54:59;1.20;;;0.70;;
75516;SDS011;64097;52.548;13.406;2023-12-20T13:57:25;1.30;;;0.73;;
75516;SDS011;64097;52.548;13.406;2023-12-20T13:59:51;1.23;;;0.55;;
